Time;durP1;ratioP1;P1;durP2;ratioP2;P2;SDS_P1;SDS_P2;PMS_P1;PMS_P2;Temp;Humidity;BMP_temperature;BMP_pressure;BME280_temperature;BME280_humidity;BME280_pressure;Samples;Min_cycle;Max_cycle;Signal;HPM_P1;HPM_P2
2021/10/02 00:01:49;;;;;;;21.60;11.60;;;;;;;8.09;70.29;101335.75;5010146;28;20036;-54
2021/10/02 00:35:27;;;;;;;29.08;12.80;;;;;;;7.47;73.30;101352.78;5016780;28;20136;-54
2021/10/02 00:45:19;;;;;;;24.60;13.05;;;;;;;7.08;76.99;101349.13;5049443;28;20041;-53
2021/10/02 00:47:44;;;;;;;25.85;13.32;;;;;;;6.94;77.33;101330.06;5043432;28;20060;-52
2021/10/02 00:50:10;;;;;;;28.38;14.05;;;;;;;6.99;77.61;101332.69;5035777;28;20044;-52
2021/10/02 00:52:36;;;;;;;21.55;12.82;;;;;;;7.08;76.96;101323.25;5034054;28;20045;-51
2021/10/02 00:55:03;;;;;;;27.05;14.25;;;;;;;7.28;77.01;101344.06;5029891;28;20420;-55
2021/10/02 00:57:28;;;;;;;23.65;13.75;;;;;;;7.41;76.49;101350.19;5030135;28;20053;-53
2021/10/02 00:59:54;;;;;;;21.33;11.25;;;;;;;7.34;76.37;101330.28;5019878;28;20128;-55
2021/10/02 01:02:44;;;;;;;23.17;12.65;;;;;;;7.24;76.80;101347.47;5049294;28;20119;-51
2021/10/02 01:05:19;;;;;;;24.42;12.77;;;;;;;7.08;77.19;101349.13;5036178;28;20072;-54
2021/10/02 01:08:29;;;;;;;19.27;11.82;;;;;;;7.11;77.34;101340.53;5017420;28;20069;-55
2021/10/02 01:11:10;;;;;;;18.52;11.25;;;;;;;7.24;76.68;101343.19;5037539;28;20067;-55
2021/10/02 01:13:48;;;;;;;24.48;12.43;;;;;;;7.22;76.46;101344.88;5050120;28;20041;-55
2021/10/02 01:16:45;;;;;;;25.25;12.57;;;;;;;7.10;76.75;101336.19;5049982;28;20041;-55
2021/10/02 01:19:33;;;;;;;25.35;11.88;;;;;;;7.15;76.96;101352.63;5031188;28;20065;-55
2021/10/02 01:22:43;;;;;;;21.92;12.45;;;;;;;7.20;76.82;101335.41;5024724;28;20045;-54
2021/10/02 01:25:18;;;;;;;24.83;12.60;;;;;;;7.16;76.84;101331.94;5007995;28;20038;-52
2021/10/02 01:27:50;;;;;;;22.05;12.40;;;;;;;7.02;77.37;101341.31;5008115;28;20516;-54
2021/10/02 01:30:23;;;;;;;24.23;12.90;;;;;;;6.98;77.80;101338.69;5032216;28;20508;-53
2021/10/02 01:33:06;;;;;;;27.67;13.32;;;;;;;7.07;77.67;101341.34;5020272;28;20069;-55
2021/10/02 01:35:41;;;;;;;26.20;13.65;;;;;;;6.97;77.93;101347.31;5019618;28;20052;-57
2021/10/02 01:49:08;;;;;;;25.67;15.00;;;;;;;6.79;78.28;101336.00;5043451;28;20124;-56
2021/10/02 01:51:35;;;;;;;26.85;14.85;;;;;;;6.84;77.71;101332.56;5028258;28;20192;-50
2021/10/02 01:54:02;;;;;;;25.27;14.23;;;;;;;6.81;78.01;101342.03;5028169;28;20398;-55
2021/10/02 01:56:28;;;;;;;26.33;14.35;;;;;;;6.82;78.28;101340.31;5045605;28;20045;-53
2021/10/02 01:58:56;;;;;;;25.73;14.77;;;;;;;6.79;78.13;101345.47;5077235;28;20037;-56
2021/10/02 02:01:22;;;;;;;29.45;14.50;;;;;;;6.76;78.14;101337.66;5011674;28;20041;-55
2021/10/02 02:03:53;;;;;;;25.48;14.85;;;;;;;6.77;77.64;101336.81;5028513;28;20616;-52
2021/10/02 02:06:19;;;;;;;30.77;14.68;;;;;;;6.78;77.99;101338.56;5027791;28;20045;-56
2021/10/02 02:08:45;;;;;;;25.33;14.32;;;;;;;6.87;77.65;101338.63;5034982;28;20052;-55
2021/10/02 02:11:11;;;;;;;23.60;13.10;;;;;;;6.85;77.08;101339.47;5015642;28;20046;-54
2021/10/02 02:13:37;;;;;;;25.85;13.80;;;;;;;6.86;77.36;101339.47;5033344;28;20041;-54
2021/10/02 02:16:05;;;;;;;23.35;12.63;;;;;;;6.82;77.28;101343.75;5032573;28;20061;-54
2021/10/02 02:18:31;;;;;;;21.45;12.20;;;;;;;6.73;77.17;101319.56;5033309;28;20044;-57
2021/10/02 02:21:05;;;;;;;26.30;12.80;;;;;;;6.93;76.95;101340.38;5032012;28;20128;-55
2021/10/02 02:23:31;;;;;;;21.17;12.25;;;;;;;7.03;76.54;101345.63;5039227;28;20065;-52
2021/10/02 02:26:04;;;;;;;21.73;12.38;;;;;;;6.98;76.24;101343.88;5051764;28;20080;-55
2021/10/02 02:28:31;;;;;;;26.65;13.18;;;;;;;6.79;76.47;101327.38;5052992;28;20040;-53
2021/10/02 02:30:57;;;;;;;23.60;13.50;;;;;;;6.85;76.32;101340.34;5046977;28;20491;-54
2021/10/02 02:33:22;;;;;;;22.52;12.63;;;;;;;6.84;76.17;101342.91;5012950;28;20050;-55
2021/10/02 02:35:49;;;;;;;22.17;12.75;;;;;;;6.75;76.46;101343.72;5029187;28;20475;-55
2021/10/02 02:38:15;;;;;;;21.05;11.95;;;;;;;6.74;76.46;101340.28;5026463;28;20037;-55
2021/10/02 02:40:42;;;;;;;24.35;12.18;;;;;;;6.67;76.86;101343.66;5032343;28;20039;-55
2021/10/02 02:43:09;;;;;;;23.70;12.48;;;;;;;6.70;76.96;101338.50;5032904;28;20071;-54
2021/10/02 02:45:35;;;;;;;21.45;11.55;;;;;;;6.83;76.51;101331.72;5030711;28;20037;-54
2021/10/02 02:48:10;;;;;;;22.90;11.85;;;;;;;7.00;75.69;101340.47;5042517;28;20048;-55
2021/10/02 02:50:49;;;;;;;21.23;12.10;;;;;;;6.98;75.72;101342.16;5027915;28;20124;-55
2021/10/02 02:53:41;;;;;;;24.65;12.88;;;;;;;6.98;75.79;101342.16;5028193;28;20148;-55
2021/10/02 02:56:17;;;;;;;22.95;12.15;;;;;;;7.10;75.32;101331.91;5039958;28;20037;-53
2021/10/02 02:58:45;;;;;;;22.98;11.55;;;;;;;7.14;75.02;101338.81;5013935;28;20556;-55
2021/10/02 03:01:12;;;;;;;21.77;12.02;;;;;;;7.10;74.78;101339.66;5027703;28;20041;-53
2021/10/02 03:03:38;;;;;;;19.65;11.15;;;;;;;7.06;75.06;101340.50;5012538;28;20037;-53
2021/10/02 03:06:06;;;;;;;22.48;11.43;;;;;;;7.15;75.13;101339.69;5011506;28;20191;-54
2021/10/02 03:08:34;;;;;;;21.73;10.73;;;;;;;7.20;74.60;101340.56;5039182;28;20041;-54
2021/10/02 03:11:02;;;;;;;24.08;12.43;;;;;;;7.09;74.34;101332.75;5030996;28;20053;-55
2021/10/02 03:13:31;;;;;;;20.73;11.23;;;;;;;6.99;74.95;101327.50;5030428;28;20096;-54
2021/10/02 03:15:57;;;;;;;23.20;11.18;;;;;;;7.20;74.40;101345.75;5014635;28;20045;-56
2021/10/02 03:18:25;;;;;;;22.30;11.98;;;;;;;7.36;74.28;101338.94;5029755;28;20056;-55
2021/10/02 03:20:53;;;;;;;19.90;11.30;;;;;;;7.30;73.41;101319.06;5030707;28;20037;-56
2021/10/02 03:23:19;;;;;;;18.85;10.90;;;;;;;7.31;73.57;101335.47;5030813;28;20103;-55
2021/10/02 03:25:47;;;;;;;20.80;11.95;;;;;;;7.18;73.94;101332.78;5030910;28;20049;-57
2021/10/02 03:28:13;;;;;;;20.83;11.52;;;;;;;7.18;74.33;101340.56;5030315;28;20045;-53
2021/10/02 03:30:40;;;;;;;25.75;12.45;;;;;;;7.23;73.88;101343.16;5032099;28;20060;-53
2021/10/02 03:33:06;;;;;;;23.58;11.20;;;;;;;7.16;74.03;101336.25;5029302;28;20064;-55
2021/10/02 03:35:32;;;;;;;20.80;11.63;;;;;;;7.08;73.89;101343.06;5029679;28;20077;-55
2021/10/02 03:37:57;;;;;;;20.33;11.82;;;;;;;7.17;73.90;101338.81;5030737;28;20037;-55
2021/10/02 03:40:24;;;;;;;20.58;11.77;;;;;;;7.29;73.74;101345.78;5031922;28;20037;-54
2021/10/02 03:42:55;;;;;;;22.75;11.73;;;;;;;7.37;73.50;101345.84;5030355;28;20041;-54
2021/10/02 03:45:23;;;;;;;21.25;12.27;;;;;;;7.28;73.36;101344.06;5031698;28;20073;-56
2021/10/02 03:47:49;;;;;;;29.77;11.88;;;;;;;7.21;73.58;101339.72;5028968;28;20084;-53
2021/10/02 03:50:15;;;;;;;21.48;11.65;;;;;;;7.22;73.89;101346.63;5031440;28;20041;-53
2021/10/02 03:52:40;;;;;;;22.42;11.68;;;;;;;7.29;73.56;101342.34;5010528;28;20461;-55
2021/10/02 03:55:08;;;;;;;22.20;11.85;;;;;;;7.32;73.13;101348.41;5024652;28;20030;-55
2021/10/02 03:57:34;;;;;;;26.63;11.57;;;;;;;7.46;73.04;101348.47;5029813;28;20497;-54
2021/10/02 04:00:00;;;;;;;23.15;11.43;;;;;;;7.48;72.87;101345.06;5021128;28;20130;-54
2021/10/02 04:02:26;;;;;;;23.10;11.77;;;;;;;7.52;73.10;101338.16;5030425;28;20072;-54
2021/10/02 04:04:51;;;;;;;22.83;11.23;;;;;;;7.59;72.73;101333.00;5063203;28;20044;-53
2021/10/02 04:07:17;;;;;;;18.35;11.30;;;;;;;7.71;72.39;101331.31;5029230;28;20071;-54
2021/10/02 04:09:43;;;;;;;21.20;11.00;;;;;;;7.77;72.25;101339.97;5031250;28;20041;-55
2021/10/02 04:12:09;;;;;;;18.45;11.07;;;;;;;7.82;72.17;101340.00;5031119;28;20055;-54
2021/10/02 04:14:35;;;;;;;19.85;10.85;;;;;;;7.91;71.88;101333.09;5029627;28;20124;-55
2021/10/02 04:17:01;;;;;;;20.38;11.75;;;;;;;7.91;71.80;101340.00;5029347;28;20393;-55
2021/10/02 04:19:27;;;;;;;20.23;11.27;;;;;;;7.97;71.53;101332.25;5030587;28;20041;-56
2021/10/02 04:21:53;;;;;;;19.67;11.70;;;;;;;7.91;71.29;101345.19;5030418;28;20481;-54
2021/10/02 04:24:18;;;;;;;17.48;11.13;;;;;;;7.68;71.77;101321.84;5026684;28;20060;-52
2021/10/02 04:26:44;;;;;;;19.95;11.30;;;;;;;7.65;72.12;101337.34;5030549;28;20045;-56
2021/10/02 04:29:10;;;;;;;20.30;11.63;;;;;;;7.55;72.42;101338.16;5029004;28;20042;-56
2021/10/02 04:31:36;;;;;;;20.10;11.18;;;;;;;7.49;72.31;101335.53;5030443;28;20069;-55
2021/10/02 04:34:02;;;;;;;19.83;11.45;;;;;;;7.50;72.66;101345.03;5030535;28;20568;-55
2021/10/02 04:36:28;;;;;;;27.25;11.40;;;;;;;7.67;72.39;101333.03;5029500;28;20084;-56
2021/10/02 04:38:54;;;;;;;21.77;11.73;;;;;;;7.84;71.82;101336.56;5012516;28;20455;-55
2021/10/02 04:41:21;;;;;;;21.52;11.18;;;;;;;7.94;71.88;101338.31;5030253;28;20052;-53
2021/10/02 04:43:47;;;;;;;20.23;11.65;;;;;;;8.05;71.72;101340.94;5026187;28;20061;-56
2021/10/02 04:46:16;;;;;;;23.15;11.32;;;;;;;8.14;71.81;101340.94;5010492;28;20096;-55
2021/10/02 04:48:42;;;;;;;21.45;10.50;;;;;;;8.19;70.81;101347.00;5010712;28;20045;-53
2021/10/02 04:51:09;;;;;;;17.08;9.93;;;;;;;8.19;70.76;101348.72;5009030;28;20564;-55
2021/10/02 04:53:34;;;;;;;22.75;10.68;;;;;;;8.13;70.81;101346.13;5025464;28;20049;-56
2021/10/02 04:56:01;;;;;;;16.50;10.02;;;;;;;8.23;70.89;101346.13;5022883;28;20347;-54
2021/10/02 04:58:30;;;;;;;19.30;10.55;;;;;;;8.36;70.38;101350.53;5013157;28;20129;-56
2021/10/02 05:00:56;;;;;;;19.05;10.32;;;;;;;8.24;70.02;101350.47;5010512;28;20041;-55
2021/10/02 05:03:22;;;;;;;19.23;11.52;;;;;;;8.31;69.95;101348.78;5010313;28;20034;-54
2021/10/02 05:05:48;;;;;;;20.08;11.02;;;;;;;8.27;70.09;101360.00;5010495;28;20064;-54
2021/10/02 05:08:13;;;;;;;18.55;10.30;;;;;;;8.20;69.89;101358.22;5022085;28;20049;-55
2021/10/02 05:10:39;;;;;;;19.85;11.65;;;;;;;8.33;69.75;101354.81;5029219;28;20052;-54
2021/10/02 05:13:06;;;;;;;20.13;10.90;;;;;;;8.40;69.65;101351.38;5028023;28;20052;-57
2021/10/02 05:15:33;;;;;;;21.38;10.90;;;;;;;8.54;69.03;101359.16;5028804;28;20457;-60
2021/10/02 05:17:59;;;;;;;22.85;11.02;;;;;;;8.66;69.27;101360.03;5029481;28;20055;-57
2021/10/02 05:20:24;;;;;;;20.38;10.85;;;;;;;8.72;68.80;101360.06;5028118;28;20120;-55
2021/10/02 05:22:50;;;;;;;19.60;10.18;;;;;;;8.84;68.73;101362.66;5029392;28;20138;-56
2021/10/02 05:25:16;;;;;;;21.77;10.63;;;;;;;8.92;68.56;101357.44;5029083;28;20550;-54
2021/10/02 05:27:41;;;;;;;20.52;10.82;;;;;;;8.99;68.21;101364.38;5028500;28;20539;-54
2021/10/02 05:30:08;;;;;;;22.27;12.05;;;;;;;8.91;68.39;101348.78;5029551;28;20037;-56
2021/10/02 05:32:33;;;;;;;19.98;10.57;;;;;;;8.82;67.82;101348.81;5029179;28;20037;-55
2021/10/02 05:34:59;;;;;;;23.70;11.40;;;;;;;8.78;68.35;101346.22;5029620;28;20052;-58
2021/10/02 05:37:25;;;;;;;20.75;11.07;;;;;;;9.01;68.14;101364.34;5045118;28;20045;-57
2021/10/02 05:39:51;;;;;;;21.60;10.82;;;;;;;9.17;67.44;101361.72;5029500;28;20041;-55
2021/10/02 05:42:17;;;;;;;18.90;10.77;;;;;;;9.18;67.32;101347.91;5015608;28;20428;-56
2021/10/02 05:44:43;;;;;;;18.38;9.88;;;;;;;9.37;67.00;101350.47;5023770;28;20045;-53
2021/10/02 05:47:08;;;;;;;18.58;11.40;;;;;;;9.46;66.39;101356.47;5033623;28;20060;-56
2021/10/02 05:49:34;;;;;;;22.73;10.77;;;;;;;9.41;66.25;101354.78;5035516;28;20052;-56
2021/10/02 05:52:00;;;;;;;24.60;11.30;;;;;;;9.52;66.94;101353.00;5041566;28;20266;-59
2021/10/02 05:54:26;;;;;;;21.08;10.43;;;;;;;9.74;66.19;101346.84;5038096;28;20124;-53
2021/10/02 05:56:52;;;;;;;20.63;11.07;;;;;;;9.75;65.43;101348.56;5032225;28;20091;-55
2021/10/02 05:59:17;;;;;;;23.60;12.13;;;;;;;9.57;65.33;101351.25;5031272;28;20041;-58
2021/10/02 06:01:43;;;;;;;24.63;12.00;;;;;;;9.57;66.13;101356.44;5032569;28;20159;-56
2021/10/02 06:04:09;;;;;;;19.50;10.75;;;;;;;9.69;65.61;101348.59;5030801;28;20522;-57
2021/10/02 06:06:34;;;;;;;20.08;10.63;;;;;;;10.00;65.01;101355.38;5032212;28;20037;-56
2021/10/02 06:09:00;;;;;;;21.00;11.02;;;;;;;10.19;63.91;101351.84;5032883;28;20067;-54
2021/10/02 06:11:26;;;;;;;22.02;10.90;;;;;;;10.40;63.78;101357.78;5032642;28;20056;-53
2021/10/02 06:13:51;;;;;;;24.45;11.60;;;;;;;10.53;63.07;101360.28;5030615;28;20033;-54
2021/10/02 06:16:19;;;;;;;20.42;11.57;;;;;;;10.56;63.46;101349.84;5031434;28;20099;-56
2021/10/02 06:18:45;;;;;;;25.13;12.15;;;;;;;10.47;63.55;101362.91;5032508;28;20045;-55
2021/10/02 06:21:15;;;;;;;23.05;12.27;;;;;;;10.57;62.98;101356.75;5031925;28;20037;-56
2021/10/02 06:23:43;;;;;;;30.70;12.18;;;;;;;10.61;63.50;101360.22;4996110;28;20049;-58
2021/10/02 06:26:09;;;;;;;23.10;11.93;;;;;;;10.64;62.65;101360.19;4988572;28;20064;-54
2021/10/02 06:28:35;;;;;;;20.60;11.25;;;;;;;10.65;62.75;101361.06;5021545;28;20581;-57
2021/10/02 06:31:01;;;;;;;21.35;11.88;;;;;;;10.84;62.98;101354.81;5033768;28;20052;-57
2021/10/02 06:33:27;;;;;;;21.92;11.65;;;;;;;11.02;62.44;101362.47;5024308;28;20528;-58
2021/10/02 06:35:53;;;;;;;21.75;12.52;;;;;;;10.86;61.47;101363.47;5025510;28;20050;-57
2021/10/02 06:38:19;;;;;;;21.67;12.05;;;;;;;10.92;61.72;101359.09;5019641;28;20038;-56
2021/10/02 06:40:45;;;;;;;21.02;10.98;;;;;;;11.04;60.98;101364.16;5028180;28;20041;-55
2021/10/02 06:43:11;;;;;;;24.45;12.57;;;;;;;11.00;60.48;101370.28;5014997;28;20041;-54
2021/10/02 06:45:38;;;;;;;19.02;10.93;;;;;;;10.95;60.45;101364.25;5024692;28;20037;-56
2021/10/02 06:48:04;;;;;;;21.80;11.73;;;;;;;10.84;60.37;101347.88;5027950;28;20057;-53
2021/10/02 06:50:31;;;;;;;25.05;12.43;;;;;;;10.91;60.16;101369.50;5011865;28;20056;-55
2021/10/02 06:52:57;;;;;;;22.42;11.85;;;;;;;10.85;60.04;101367.81;5019565;28;20040;-55
2021/10/02 06:55:22;;;;;;;24.25;11.98;;;;;;;10.77;59.81;101369.63;5023432;28;20049;-55
2021/10/02 06:57:48;;;;;;;21.23;11.18;;;;;;;10.79;59.32;101369.59;5026710;28;20045;-55
2021/10/02 07:00:14;;;;;;;19.20;11.40;;;;;;;10.76;59.63;101367.91;5018803;28;20041;-56
2021/10/02 07:02:41;;;;;;;21.60;11.82;;;;;;;10.70;59.84;101354.94;5039594;28;20034;-58
2021/10/02 07:05:11;;;;;;;20.58;11.70;;;;;;;10.88;59.21;101364.34;5016864;28;20064;-56
2021/10/02 07:07:37;;;;;;;18.92;10.90;;;;;;;10.84;59.28;101355.69;5019962;28;20587;-56
2021/10/02 07:10:04;;;;;;;20.50;11.38;;;;;;;10.84;59.12;101367.81;5024852;28;20111;-56
2021/10/02 07:12:30;;;;;;;20.13;11.45;;;;;;;10.67;59.51;101344.56;4995448;28;20034;-56
2021/10/02 07:14:56;;;;;;;19.65;11.57;;;;;;;10.88;59.39;101365.22;5017535;28;20045;-55
2021/10/02 07:17:22;;;;;;;20.30;11.90;;;;;;;11.00;58.58;101356.41;5012565;28;20041;-56
2021/10/02 07:19:47;;;;;;;21.88;11.55;;;;;;;11.26;58.30;101362.22;5013251;28;20057;-57
2021/10/02 07:22:14;;;;;;;19.15;10.45;;;;;;;11.25;58.07;101342.25;5018535;28;20042;-58
2021/10/02 07:24:39;;;;;;;21.55;11.88;;;;;;;11.40;58.00;101356.88;5021306;28;20045;-59
2021/10/02 07:27:05;;;;;;;21.85;11.10;;;;;;;11.71;57.58;101350.44;5021015;28;20046;-55
2021/10/02 07:29:32;;;;;;;20.88;11.57;;;;;;;12.05;56.37;101357.84;5021299;28;20049;-57
2021/10/02 07:31:58;;;;;;;20.27;11.52;;;;;;;12.17;55.71;101355.06;5021283;28;20045;-56
2021/10/02 07:34:24;;;;;;;25.67;12.45;;;;;;;12.32;55.86;101360.06;5035510;28;20421;-57
2021/10/02 07:36:50;;;;;;;25.65;11.65;;;;;;;12.52;54.93;101341.47;5023744;28;20509;-57
2021/10/02 07:39:16;;;;;;;20.67;12.25;;;;;;;12.87;54.36;101356.59;5017372;28;20072;-56
2021/10/02 07:41:46;;;;;;;21.05;12.35;;;;;;;12.88;53.79;101355.69;5015867;28;20074;-57
2021/10/02 07:44:13;;;;;;;21.38;12.45;;;;;;;12.91;53.65;101351.28;5020352;28;20038;-54
2021/10/02 07:46:48;;;;;;;17.83;11.38;;;;;;;13.03;53.17;101358.03;5027670;28;20440;-57
2021/10/02 07:49:16;;;;;;;23.63;11.80;;;;;;;13.12;52.85;101356.16;5026080;28;20046;-58
2021/10/02 07:51:43;;;;;;;23.92;12.57;;;;;;;13.38;52.46;101331.31;5017629;28;20136;-59
2021/10/02 07:54:09;;;;;;;23.20;12.65;;;;;;;13.66;51.97;101348.13;5029731;28;20030;-59
2021/10/02 07:56:35;;;;;;;22.90;13.30;;;;;;;13.67;51.53;101356.84;5030641;28;20043;-59
2021/10/02 07:59:05;;;;;;;22.63;11.90;;;;;;;13.71;51.52;101351.50;5045490;28;20038;-59
2021/10/02 08:01:31;;;;;;;22.92;12.82;;;;;;;13.99;51.04;101336.97;5013251;28;20033;-59
2021/10/02 08:03:57;;;;;;;24.52;13.40;;;;;;;14.49;50.30;101358.56;5011446;28;20057;-57
2021/10/02 08:06:24;;;;;;;29.80;12.95;;;;;;;14.54;49.94;101337.50;5030567;28;20120;-59
2021/10/02 08:08:51;;;;;;;28.17;13.57;;;;;;;14.60;49.52;101358.28;4996463;28;20114;-58
2021/10/02 08:11:16;;;;;;;24.38;12.57;;;;;;;14.28;49.72;101354.66;5029923;28;20048;-58
2021/10/02 08:13:42;;;;;;;26.15;12.00;;;;;;;14.38;50.24;101356.19;5028882;28;20037;-59
2021/10/02 08:16:09;;;;;;;28.58;13.90;;;;;;;14.24;49.77;101352.09;5029977;28;20052;-59
2021/10/02 08:18:38;;;;;;;25.08;13.70;;;;;;;14.31;49.90;101356.31;5029108;28;20037;-59
2021/10/02 08:21:06;;;;;;;23.55;13.63;;;;;;;14.36;49.64;101350.13;5012565;28;21142;-58
2021/10/02 08:23:35;;;;;;;26.25;13.60;;;;;;;14.65;49.22;101351.19;5028856;28;20037;-61
2021/10/02 08:26:02;;;;;;;24.60;13.70;;;;;;;15.08;48.81;101348.31;5028344;28;20425;-59
2021/10/02 08:28:30;;;;;;;22.45;13.27;;;;;;;15.26;48.16;101330.38;5030244;28;20088;-58
2021/10/02 08:30:56;;;;;;;26.42;13.35;;;;;;;15.61;47.90;101349.50;5029579;28;20030;-58
2021/10/02 08:33:22;;;;;;;33.78;14.60;;;;;;;15.74;47.80;101347.41;5028606;28;20040;-57
2021/10/02 08:35:48;;;;;;;21.92;14.10;;;;;;;15.75;47.33;101346.50;5030522;28;20037;-60
2021/10/02 08:38:13;;;;;;;26.52;14.73;;;;;;;15.27;47.47;101345.19;5024190;28;20053;-58
2021/10/02 08:40:39;;;;;;;25.40;14.45;;;;;;;15.06;47.65;101334.41;5010725;28;20034;-56
2021/10/02 08:43:10;;;;;;;36.17;14.20;;;;;;;14.87;48.10;101356.72;5020787;28;20045;-57
2021/10/02 08:45:37;;;;;;;22.27;14.40;;;;;;;14.87;48.23;101343.63;5026320;28;20041;-58
2021/10/02 08:48:03;;;;;;;29.40;15.30;;;;;;;15.00;48.08;101340.69;5026311;28;20064;-59
2021/10/02 08:50:29;;;;;;;23.75;14.35;;;;;;;15.11;47.87;101346.50;5008132;28;20119;-58
2021/10/02 08:52:56;;;;;;;22.95;14.68;;;;;;;15.20;47.86;101351.50;5029361;28;20057;-55
2021/10/02 08:55:22;;;;;;;28.33;13.68;;;;;;;15.23;47.88;101347.91;5028555;28;20120;-57
2021/10/02 08:57:49;;;;;;;22.50;13.43;;;;;;;15.28;47.46;101346.06;5027843;28;20073;-59
2021/10/02 09:00:22;;;;;;;21.50;14.15;;;;;;;15.19;47.79;101346.28;5028714;28;20167;-58
2021/10/02 09:02:49;;;;;;;25.10;14.52;;;;;;;14.66;48.44;101345.91;5029554;28;20057;-56
2021/10/02 09:05:16;;;;;;;25.90;14.57;;;;;;;14.44;48.80;101344.72;5029952;28;20545;-54
2021/10/02 09:07:42;;;;;;;26.45;14.55;;;;;;;14.15;49.36;101340.09;5029149;28;20129;-59
2021/10/02 09:10:10;;;;;;;31.65;15.55;;;;;;;14.12;49.97;101341.94;5030058;28;20394;-60
2021/10/02 09:12:39;;;;;;;29.75;14.98;;;;;;;13.99;50.05;101344.81;5029194;28;20136;-60
2021/10/02 09:15:06;;;;;;;29.60;15.88;;;;;;;13.61;50.50;101342.13;5028084;28;20057;-59
2021/10/02 09:17:32;;;;;;;25.70;14.73;;;;;;;13.38;50.81;101346.97;5029527;28;20067;-59
2021/10/02 09:19:58;;;;;;;32.75;15.20;;;;;;;13.22;51.13;101340.31;5028116;28;20033;-59
2021/10/02 09:22:24;;;;;;;25.85;14.82;;;;;;;13.14;51.40;101323.03;5029624;28;20049;-59
2021/10/02 09:24:52;;;;;;;26.00;14.88;;;;;;;13.12;51.20;101335.28;5011618;28;20037;-60
2021/10/02 09:27:23;;;;;;;23.85;14.35;;;;;;;13.17;51.04;101337.78;5028888;28;20148;-58
2021/10/02 09:30:08;;;;;;;22.77;14.30;;;;;;;13.35;50.79;101342.66;5029583;28;20047;-60
2021/10/02 09:32:38;;;;;;;25.25;14.80;;;;;;;13.42;50.59;101341.66;5031390;28;20038;-59
2021/10/02 09:35:22;;;;;;;25.77;14.67;;;;;;;13.29;50.44;101340.19;5028997;28;20048;-60
2021/10/02 09:38:00;;;;;;;25.85;16.05;;;;;;;13.27;50.69;101338.47;5027410;28;20456;-61
2021/10/02 09:40:27;;;;;;;27.52;15.40;;;;;;;13.32;50.53;101339.25;5025277;28;20034;-60
2021/10/02 09:42:55;;;;;;;23.08;15.35;;;;;;;13.40;50.76;101337.34;5028033;28;20048;-61
2021/10/02 09:45:27;;;;;;;26.98;14.57;;;;;;;13.48;50.95;101330.22;5028025;28;20049;-62
2021/10/02 09:47:58;;;;;;;28.98;15.82;;;;;;;13.31;50.85;101333.16;5028879;28;20053;-60
2021/10/02 09:50:28;;;;;;;28.65;14.40;;;;;;;13.16;50.87;101338.69;4994632;28;20037;-61
2021/10/02 09:53:15;;;;;;;24.15;14.55;;;;;;;13.17;51.12;101332.56;5027505;28;20049;-60
2021/10/02 09:55:42;;;;;;;27.75;15.20;;;;;;;13.07;50.92;101331.84;5036707;28;20133;-59
2021/10/02 09:58:12;;;;;;;21.40;14.57;;;;;;;12.99;50.95;101328.50;5010979;28;20045;-60
2021/10/02 10:00:40;;;;;;;20.42;14.32;;;;;;;12.99;50.85;101325.03;5028809;28;20033;-60
2021/10/02 10:03:10;;;;;;;22.20;14.63;;;;;;;12.99;50.90;101330.25;5029221;28;20536;-59
2021/10/02 10:05:38;;;;;;;25.75;14.77;;;;;;;13.03;50.60;101319.72;5027894;28;20071;-59
2021/10/02 10:08:06;;;;;;;25.00;15.02;;;;;;;12.90;50.90;101327.81;5026723;28;20045;-59
2021/10/02 10:10:34;;;;;;;23.50;14.75;;;;;;;12.89;50.91;101328.69;5028396;28;20057;-60
2021/10/02 10:13:14;;;;;;;26.27;14.82;;;;;;;12.78;50.95;101328.88;5027716;28;20052;-61
2021/10/02 10:15:45;;;;;;;21.55;13.80;;;;;;;12.91;51.02;101321.69;5009470;28;20526;-59
2021/10/02 10:18:28;;;;;;;24.13;15.95;;;;;;;13.11;50.89;101322.19;5010040;28;20140;-60
2021/10/02 10:21:03;;;;;;;26.20;14.82;;;;;;;13.20;50.79;101324.66;5027874;28;20420;-59
2021/10/02 10:23:38;;;;;;;30.95;15.65;;;;;;;13.29;51.03;101318.41;5026304;28;20049;-60
2021/10/02 10:26:08;;;;;;;24.80;14.85;;;;;;;13.33;51.09;101322.69;5026129;28;20042;-59
2021/10/02 10:28:36;;;;;;;27.98;15.88;;;;;;;13.26;51.19;101318.47;5031713;28;20441;-58
2021/10/02 10:31:30;;;;;;;23.45;15.05;;;;;;;13.25;51.02;101322.81;5014919;28;20037;-58
2021/10/02 10:33:57;;;;;;;25.65;15.73;;;;;;;13.04;51.18;101312.75;5060943;28;20044;-58
2021/10/02 10:36:26;;;;;;;26.20;15.63;;;;;;;12.85;51.79;101321.81;5031198;28;20132;-56
2021/10/02 10:38:52;;;;;;;28.38;13.80;;;;;;;12.78;52.48;101323.66;5028872;28;20921;-57
2021/10/02 10:41:20;;;;;;;28.60;14.60;;;;;;;12.61;52.96;101313.50;5030796;28;20060;-57
2021/10/02 10:43:46;;;;;;;30.75;15.48;;;;;;;12.66;53.04;101311.69;5030890;28;20056;-58
2021/10/02 10:46:15;;;;;;;28.15;15.65;;;;;;;12.85;52.80;101308.75;5027594;28;20091;-58
2021/10/02 10:48:41;;;;;;;;;;;;;;;12.96;53.15;101315.50;5030033;28;20044;-58
2021/10/02 10:51:09;;;;;;;30.35;16.00;;;;;;;13.04;52.95;101315.34;5027565;28;20400;-59
2021/10/02 10:53:39;;;;;;;31.15;15.55;;;;;;;13.11;52.30;101309.13;5014633;28;20045;-58
2021/10/02 10:56:06;;;;;;;25.77;15.27;;;;;;;13.20;52.17;101308.13;5014624;28;20529;-56
2021/10/02 10:58:33;;;;;;;23.85;14.80;;;;;;;13.30;52.12;101313.16;5018769;28;20498;-61
2021/10/02 11:01:01;;;;;;;25.27;15.70;;;;;;;13.37;52.18;101300.84;5028832;28;20038;-54
2021/10/02 11:03:42;;;;;;;24.52;15.70;;;;;;;13.45;52.03;101298.94;5031063;28;20053;-59
2021/10/02 11:06:16;;;;;;;30.48;15.32;;;;;;;13.50;52.13;101297.94;5031624;28;20037;-56
2021/10/02 11:09:03;;;;;;;28.00;16.65;;;;;;;13.64;51.86;101302.03;5029837;28;20037;-58
2021/10/02 11:11:44;;;;;;;28.92;17.05;;;;;;;13.73;51.67;101299.22;5030093;28;20127;-56
2021/10/02 11:14:14;;;;;;;29.83;16.10;;;;;;;13.79;51.18;101307.78;5025672;28;20045;-57
2021/10/02 11:16:42;;;;;;;26.73;15.55;;;;;;;13.81;50.88;101298.16;5027993;28;20111;-54
2021/10/02 11:19:41;;;;;;;24.60;14.95;;;;;;;13.62;50.49;101299.44;5030587;28;20034;-66
2021/10/02 11:22:32;;;;;;;;;;;;;;;13.45;50.61;101289.31;5030823;28;20057;-67
2021/10/02 11:24:59;;;;;;;28.50;15.98;;;;;;;13.48;51.33;101291.03;5046110;28;19917;-67
2021/10/02 11:27:25;;;;;;;34.28;15.30;;;;;;;13.51;51.24;101281.38;5030430;28;20041;-66
2021/10/02 11:29:52;;;;;;;28.45;16.45;;;;;;;13.64;51.29;101291.56;5030171;28;20133;-71
2021/10/02 11:32:21;;;;;;;28.65;15.98;;;;;;;13.51;50.96;101293.56;5029579;28;20425;-69
2021/10/02 11:35:09;;;;;;;33.85;16.23;;;;;;;13.45;51.31;101293.72;5031876;28;20045;-64
2021/10/02 11:37:41;;;;;;;26.63;16.48;;;;;;;13.40;50.81;101292.91;5030661;28;20510;-69
2021/10/02 11:40:32;;;;;;;25.58;15.43;;;;;;;13.10;50.81;101290.00;5028810;28;20037;-64
2021/10/02 11:43:13;;;;;;;24.08;15.60;;;;;;;12.99;51.01;101297.16;5027678;28;20517;-71
2021/10/02 11:45:40;;;;;;;25.45;15.80;;;;;;;12.77;51.36;101279.34;5033903;28;20052;-63
2021/10/02 11:48:17;;;;;;;26.38;16.58;;;;;;;12.89;51.54;101290.41;5013138;28;20077;-67
2021/10/02 11:51:24;;;;;;;28.52;16.02;;;;;;;13.11;51.49;101296.09;5028565;28;20080;-67
2021/10/02 11:53:57;;;;;;;25.80;16.90;;;;;;;13.19;51.40;101290.75;5028561;28;20480;-67
2021/10/02 11:56:28;;;;;;;23.42;15.57;;;;;;;13.26;51.12;101287.13;5028325;28;20045;-67
2021/10/02 11:58:56;;;;;;;29.40;16.50;;;;;;;13.32;51.16;101284.38;5027563;28;20098;-68
2021/10/02 12:01:23;;;;;;;29.10;16.27;;;;;;;13.34;51.44;101280.00;5030367;28;20041;-68
2021/10/02 12:03:57;;;;;;;27.00;16.77;;;;;;;13.33;50.92;101273.06;5026160;28;20037;-66
2021/10/02 12:06:23;;;;;;;25.63;16.02;;;;;;;13.34;50.94;101275.66;5034553;28;20041;-66
2021/10/02 12:08:50;;;;;;;29.98;16.48;;;;;;;13.33;50.91;101279.13;5032253;28;20040;-67
2021/10/02 12:11:16;;;;;;;27.38;15.95;;;;;;;13.38;50.90;101276.44;5012225;28;20089;-67
2021/10/02 12:13:49;;;;;;;25.15;15.75;;;;;;;13.34;50.93;101278.25;5029802;28;20065;-66